createdAt,value
2019-03-10T00:00:52.289Z,66.62
2019-03-10T00:03:25.204Z,66.90
2019-03-10T00:05:56.786Z,67.21
2019-03-10T00:08:28.135Z,67.30
2019-03-10T00:10:59.572Z,67.19
2019-03-10T00:13:31.048Z,67.48
2019-03-10T00:16:02.352Z,67.52
2019-03-10T00:18:33.692Z,67.88
2019-03-10T00:21:05.104Z,68.17
2019-03-10T00:23:36.415Z,67.93
2019-03-10T00:26:08.864Z,67.93
2019-03-10T00:28:41.116Z,67.95
2019-03-10T00:31:13.574Z,67.89
2019-03-10T00:33:45.061Z,68.06
2019-03-10T00:36:16.326Z,68.17
2019-03-10T00:38:58.315Z,67.70
2019-03-10T00:41:40.157Z,67.53
2019-03-10T00:44:57.721Z,67.58
2019-03-10T00:48:00.707Z,67.47
2019-03-10T00:50:54.880Z,67.34
2019-03-10T00:53:26.139Z,67.51
2019-03-10T00:55:57.446Z,67.73
2019-03-10T00:58:28.948Z,67.39
2019-03-10T01:01:00.393Z,67.27
2019-03-10T01:03:31.658Z,67.11
2019-03-10T01:06:03.152Z,67.09
2019-03-10T01:08:34.475Z,67.34
2019-03-10T01:11:08.008Z,67.35
2019-03-10T01:13:39.355Z,67.61
2019-03-10T01:16:11.039Z,67.69
2019-03-10T01:18:42.784Z,67.36
2019-03-10T01:21:14.673Z,67.40
2019-03-10T01:23:45.918Z,66.93
2019-03-10T01:26:17.381Z,67.59
2019-03-10T01:28:48.779Z,67.33
2019-03-10T01:31:47.469Z,67.46
2019-03-10T01:34:56.562Z,67.41
2019-03-10T01:37:27.937Z,67.66
2019-03-10T01:39:59.242Z,67.85
2019-03-10T01:42:30.558Z,67.74
2019-03-10T01:45:02.068Z,68.00
2019-03-10T01:47:33.542Z,67.83
2019-03-10T01:50:06.673Z,67.98
2019-03-10T01:52:38.001Z,68.29
2019-03-10T01:55:11.686Z,68.39
2019-03-10T01:57:43.075Z,68.50
2019-03-10T02:00:17.449Z,68.79
2019-03-10T02:02:48.817Z,68.95
2019-03-10T02:05:20.292Z,69.12
2019-03-10T02:07:51.802Z,69.34
2019-03-10T02:10:23.150Z,69.45
2019-03-10T02:12:54.639Z,69.35
2019-03-10T02:15:25.946Z,69.21
2019-03-10T02:17:57.256Z,69.22
2019-03-10T02:20:28.758Z,69.33
2019-03-10T02:23:00.174Z,69.39
2019-03-10T02:25:31.519Z,69.45
2019-03-10T02:28:02.840Z,69.58
2019-03-10T02:30:34.064Z,69.92
2019-03-10T02:33:08.131Z,70.01
2019-03-10T02:35:39.442Z,70.29
2019-03-10T02:38:10.745Z,70.37
2019-03-10T02:40:43.473Z,70.65
2019-03-10T02:43:15.033Z,70.87
2019-03-10T02:45:46.339Z,71.22
2019-03-10T02:48:17.635Z,71.94
2019-03-10T02:50:48.883Z,73.01
2019-03-10T02:53:20.213Z,73.70
2019-03-10T02:55:51.427Z,74.15
2019-03-10T02:58:22.785Z,74.59
2019-03-10T03:00:54.049Z,75.11
2019-03-10T03:03:25.477Z,75.79
2019-03-10T03:05:56.891Z,76.78
2019-03-10T03:08:28.233Z,77.24
2019-03-10T03:10:59.519Z,77.89
2019-03-10T03:13:30.772Z,78.07
2019-03-10T03:16:03.197Z,78.45
2019-03-10T03:18:46.875Z,78.65
2019-03-10T03:21:18.166Z,79.00
2019-03-10T03:23:49.404Z,79.50
2019-03-10T03:26:20.753Z,80.04
2019-03-10T03:28:52.065Z,80.34
2019-03-10T03:31:23.405Z,80.58
2019-03-10T03:33:54.646Z,81.08
2019-03-10T03:36:30.148Z,81.25
2019-03-10T03:39:24.258Z,81.67
2019-03-10T03:41:56.048Z,82.28
2019-03-10T03:44:28.942Z,83.71
2019-03-10T03:47:00.286Z,84.37
2019-03-10T03:49:32.709Z,84.90
2019-03-10T03:52:03.999Z,85.22
2019-03-10T03:54:36.314Z,85.17
2019-03-10T03:57:07.686Z,84.80
2019-03-10T03:59:40.089Z,84.69
2019-03-10T04:02:12.992Z,85.24
2019-03-10T04:04:44.402Z,85.30
2019-03-10T04:07:15.700Z,85.38
2019-03-10T04:09:47.077Z,85.67
2019-03-10T04:12:18.294Z,85.82
2019-03-10T04:14:49.627Z,86.05
2019-03-10T04:17:22.492Z,86.28
2019-03-10T04:19:53.755Z,86.37
2019-03-10T04:22:25.119Z,86.34
2019-03-10T04:24:56.389Z,86.50
2019-03-10T04:27:30.260Z,86.48
2019-03-10T04:30:01.616Z,86.41
2019-03-10T04:32:34.235Z,86.33
2019-03-10T04:35:07.423Z,86.37
2019-03-10T04:37:38.648Z,85.97
2019-03-10T04:40:10.126Z,85.87
2019-03-10T04:42:41.422Z,85.37
2019-03-10T04:45:12.935Z,85.77
2019-03-10T04:47:44.154Z,85.92
2019-03-10T04:50:16.433Z,86.01
2019-03-10T04:52:47.833Z,86.14
2019-03-10T04:55:23.338Z,86.36
2019-03-10T04:57:59.109Z,86.76
2019-03-10T05:00:31.331Z,86.97
2019-03-10T05:03:02.560Z,87.21
2019-03-10T05:05:33.965Z,87.44
2019-03-10T05:08:05.237Z,87.67
2019-03-10T05:10:36.567Z,87.82
2019-03-10T05:13:07.808Z,87.95
2019-03-10T05:15:40.354Z,88.10
2019-03-10T05:18:11.591Z,88.06
2019-03-10T05:20:42.955Z,88.19
2019-03-10T05:23:36.014Z,88.11
2019-03-10T05:26:07.527Z,88.05
2019-03-10T05:28:44.986Z,88.01
2019-03-10T05:31:16.489Z,88.27
2019-03-10T05:33:47.713Z,88.19
2019-03-10T05:36:19.215Z,88.14
2019-03-10T05:38:50.589Z,88.14
2019-03-10T05:41:22.993Z,88.12
2019-03-10T05:43:54.336Z,88.07
2019-03-10T05:46:25.549Z,88.15
2019-03-10T05:48:57.771Z,88.16
2019-03-10T05:51:29.073Z,88.37
2019-03-10T05:54:00.345Z,88.44
2019-03-10T05:56:33.639Z,88.54
2019-03-10T05:59:05.152Z,88.63
2019-03-10T06:01:36.388Z,88.66
2019-03-10T06:04:07.734Z,88.86
2019-03-10T06:06:43.113Z,88.99
2019-03-10T06:09:14.429Z,88.98
2019-03-10T06:11:45.654Z,89.07
2019-03-10T06:14:16.874Z,89.23
2019-03-10T06:16:48.155Z,89.25
2019-03-10T06:19:19.361Z,89.36
2019-03-10T06:21:50.661Z,89.36
2019-03-10T06:24:22.106Z,89.25
2019-03-10T06:26:53.407Z,89.41
2019-03-10T06:29:24.684Z,89.52
2019-03-10T06:31:55.898Z,89.73
2019-03-10T06:34:27.213Z,89.79
2019-03-10T06:36:58.615Z,89.95
2019-03-10T06:39:29.877Z,90.00
2019-03-10T06:42:01.095Z,90.04
2019-03-10T06:44:32.380Z,90.15
2019-03-10T06:47:04.638Z,90.10
2019-03-10T06:49:35.978Z,89.96
2019-03-10T06:52:07.430Z,90.12
2019-03-10T06:54:38.656Z,90.06
2019-03-10T06:57:10.206Z,90.09
2019-03-10T06:59:41.421Z,90.12
2019-03-10T07:02:12.693Z,90.11
2019-03-10T07:04:43.978Z,90.10
2019-03-10T07:07:15.309Z,90.11
2019-03-10T07:09:46.527Z,90.12
2019-03-10T07:12:18.153Z,90.11
2019-03-10T07:14:49.368Z,90.15
2019-03-10T07:17:20.641Z,89.91
2019-03-10T07:19:51.865Z,86.92
2019-03-10T07:22:23.288Z,83.22
2019-03-10T07:24:54.588Z,82.42
2019-03-10T07:27:27.689Z,81.70
2019-03-10T07:30:00.615Z,80.34
2019-03-10T07:32:42.774Z,80.04
2019-03-10T07:35:20.470Z,79.41
2019-03-10T07:38:04.896Z,79.27
2019-03-10T07:40:53.011Z,79.02
2019-03-10T07:43:37.941Z,78.74
2019-03-10T07:46:14.268Z,78.20
2019-03-10T07:48:48.485Z,77.81
2019-03-10T07:51:21.375Z,77.65
2019-03-10T07:53:56.400Z,78.16
2019-03-10T07:56:35.422Z,77.82
2019-03-10T07:59:08.475Z,79.38
2019-03-10T08:01:56.285Z,78.83
2019-03-10T08:04:33.775Z,78.61
2019-03-10T08:07:12.484Z,78.78
2019-03-10T08:09:50.908Z,78.63
2019-03-10T08:12:21.977Z,78.96
2019-03-10T08:14:57.632Z,79.38
2019-03-10T08:17:33.276Z,79.06
2019-03-10T08:20:13.297Z,79.16
2019-03-10T08:22:49.195Z,78.01
2019-03-10T08:25:22.797Z,76.41
2019-03-10T08:28:01.671Z,76.60
2019-03-10T08:30:39.366Z,77.54
2019-03-10T08:33:10.412Z,77.32
2019-03-10T08:35:41.415Z,76.45
2019-03-10T08:38:31.716Z,76.83
2019-03-10T08:41:10.170Z,76.48
2019-03-10T08:44:00.389Z,76.47
2019-03-10T08:46:36.406Z,76.40
2019-03-10T08:49:09.328Z,75.41
2019-03-10T08:51:58.557Z,76.83
2019-03-10T08:54:32.845Z,76.79
2019-03-10T08:57:05.989Z,74.41
2019-03-10T08:59:57.171Z,75.70
2019-03-10T09:02:37.218Z,74.42
2019-03-10T09:05:14.819Z,73.15
2019-03-10T09:07:50.442Z,73.84
2019-03-10T09:10:34.999Z,73.93
2019-03-10T09:13:08.008Z,72.65
2019-03-10T09:15:52.919Z,72.66
2019-03-10T09:18:25.804Z,73.18
2019-03-10T09:21:04.792Z,72.73
2019-03-10T09:23:38.803Z,70.70
2019-03-10T09:26:16.703Z,71.58
2019-03-10T09:29:06.881Z,71.17
2019-03-10T09:31:39.782Z,69.88
2019-03-10T09:34:24.938Z,70.06
2019-03-10T09:37:03.680Z,71.15
2019-03-10T09:39:39.286Z,71.48
2019-03-10T09:42:28.009Z,70.85
2019-03-10T09:45:00.952Z,69.67
2019-03-10T09:47:39.811Z,68.21
2019-03-10T09:50:24.459Z,67.83
2019-03-10T09:52:57.430Z,68.77
2019-03-10T09:55:35.946Z,68.93
2019-03-10T09:58:29.548Z,68.21
2019-03-10T10:01:02.501Z,69.37
2019-03-10T10:03:35.705Z,68.30
2019-03-10T10:06:08.969Z,68.67
2019-03-10T10:09:00.712Z,68.08
2019-03-10T10:11:33.353Z,67.81
2019-03-10T10:14:04.367Z,68.92
2019-03-10T10:17:03.169Z,68.57
2019-03-10T10:19:36.216Z,71.64
2019-03-10T10:22:20.196Z,71.17
2019-03-10T10:24:57.241Z,70.18
2019-03-10T10:27:42.320Z,68.62
2019-03-10T10:30:18.661Z,69.10
2019-03-10T10:33:08.275Z,67.98
2019-03-10T10:35:41.302Z,68.05
2019-03-10T10:38:30.552Z,66.84
2019-03-10T10:41:06.525Z,67.08
2019-03-10T10:43:40.301Z,71.00
2019-03-10T10:46:17.088Z,73.25
2019-03-10T10:48:50.076Z,76.48
2019-03-10T10:51:41.447Z,71.76
2019-03-10T10:54:15.451Z,74.42
2019-03-10T10:56:53.808Z,74.27
2019-03-10T10:59:29.476Z,77.05
2019-03-10T11:02:04.718Z,77.90
2019-03-10T11:04:55.315Z,79.17
2019-03-10T11:07:44.833Z,78.65
2019-03-10T11:10:20.791Z,78.68
2019-03-10T11:13:10.250Z,78.71
2019-03-10T11:15:50.639Z,77.59
2019-03-10T11:18:33.497Z,79.30
2019-03-10T11:21:15.999Z,76.16
2019-03-10T11:24:05.405Z,75.67
2019-03-10T11:26:44.466Z,76.30
2019-03-10T11:29:31.399Z,77.79
2019-03-10T11:32:13.954Z,76.65
2019-03-10T11:34:50.949Z,76.62
2019-03-10T11:37:24.665Z,76.79
2019-03-10T11:39:55.776Z,77.42
2019-03-10T11:42:41.954Z,73.97
2019-03-10T11:45:21.107Z,72.24
2019-03-10T11:48:09.611Z,71.82
2019-03-10T11:50:46.575Z,73.36
2019-03-10T11:53:25.784Z,71.26
2019-03-10T11:56:07.344Z,69.74
2019-03-10T11:58:49.152Z,67.62
2019-03-10T12:01:24.646Z,65.46
2019-03-10T12:04:14.286Z,65.97
2019-03-10T12:06:47.435Z,63.32
2019-03-10T12:09:24.488Z,60.99
2019-03-10T12:11:55.854Z,61.49
2019-03-10T12:14:27.281Z,58.94
2019-03-10T12:16:58.646Z,59.15
2019-03-10T12:19:30.340Z,60.55
2019-03-10T12:22:01.851Z,60.95
2019-03-10T12:24:33.441Z,59.83
2019-03-10T12:27:04.838Z,60.20
2019-03-10T12:29:36.347Z,60.87
2019-03-10T12:32:08.798Z,61.82
2019-03-10T12:34:40.118Z,59.52
2019-03-10T12:37:11.361Z,57.65
2019-03-10T12:39:42.839Z,57.77
2019-03-10T12:42:14.192Z,57.49
2019-03-10T12:44:45.754Z,58.71
2019-03-10T12:47:17.364Z,59.55
2019-03-10T12:49:48.654Z,57.18
2019-03-10T12:52:19.926Z,55.76
2019-03-10T12:54:51.239Z,54.64
2019-03-10T12:57:22.497Z,56.99
2019-03-10T12:59:53.794Z,57.04
2019-03-10T13:02:25.155Z,54.53
2019-03-10T13:04:57.556Z,52.67
2019-03-10T13:07:28.796Z,55.06
2019-03-10T13:10:00.334Z,54.94
2019-03-10T13:12:40.392Z,53.53
2019-03-10T13:15:13.384Z,54.45
2019-03-10T13:17:44.978Z,54.13
2019-03-10T13:20:27.523Z,53.68
2019-03-10T13:22:49.499Z,55.25
2019-03-10T13:25:20.854Z,52.52
2019-03-10T13:27:56.137Z,51.61
2019-03-10T13:30:27.462Z,49.34
2019-03-10T13:32:58.838Z,50.17
2019-03-10T13:35:30.757Z,49.29
2019-03-10T13:38:10.567Z,50.09
2019-03-10T13:40:41.603Z,47.93
2019-03-10T13:43:12.841Z,48.46
2019-03-10T13:45:46.591Z,46.81
2019-03-10T13:48:17.833Z,44.94
2019-03-10T13:50:49.322Z,47.02
2019-03-10T13:53:20.541Z,45.07
2019-03-10T13:55:52.975Z,46.82
2019-03-10T13:58:24.326Z,46.88
2019-03-10T14:00:56.573Z,45.76
2019-03-10T14:03:27.876Z,42.83
2019-03-10T14:05:59.237Z,41.38
2019-03-10T14:08:30.736Z,39.03
2019-03-10T14:11:02.048Z,42.27
2019-03-10T14:13:33.351Z,39.67
2019-03-10T14:16:11.255Z,40.08
2019-03-10T14:18:48.463Z,39.42
2019-03-10T14:21:20.437Z,40.91
2019-03-10T14:23:51.751Z,40.34
2019-03-10T14:26:23.143Z,40.89
2019-03-10T14:29:14.181Z,40.01
2019-03-10T14:31:45.451Z,37.34
2019-03-10T14:34:16.970Z,35.90
2019-03-10T14:36:48.463Z,37.82
2019-03-10T14:39:19.693Z,37.49
2019-03-10T14:41:51.140Z,36.78
2019-03-10T14:44:22.821Z,37.74
2019-03-10T14:46:54.882Z,37.63
2019-03-10T14:49:26.232Z,36.93
2019-03-10T14:51:57.626Z,37.51
2019-03-10T14:54:28.902Z,36.93
2019-03-10T14:57:02.556Z,37.23
2019-03-10T14:59:33.279Z,38.21
2019-03-10T15:02:04.875Z,37.28
2019-03-10T15:04:36.257Z,36.97
2019-03-10T15:07:07.627Z,37.92
2019-03-10T15:09:38.858Z,37.26
2019-03-10T15:12:11.262Z,36.34
2019-03-10T15:14:42.494Z,37.50
2019-03-10T15:17:13.793Z,36.12
2019-03-10T15:19:46.173Z,36.92
2019-03-10T15:22:17.469Z,37.99
2019-03-10T15:24:48.815Z,38.39
2019-03-10T15:27:23.548Z,38.43
2019-03-10T15:29:53.907Z,38.62
2019-03-10T15:32:25.505Z,40.10
2019-03-10T15:34:56.722Z,39.55
2019-03-10T15:37:28.064Z,39.29
2019-03-10T15:39:59.311Z,38.63
2019-03-10T15:42:30.963Z,38.86
2019-03-10T15:45:02.231Z,38.66
2019-03-10T15:47:35.161Z,39.97
2019-03-10T15:50:19.256Z,39.04
2019-03-10T15:52:50.604Z,41.51
2019-03-10T15:55:21.992Z,39.79
2019-03-10T15:57:53.413Z,40.62
2019-03-10T16:00:28.903Z,40.48
2019-03-10T16:03:01.430Z,41.75
2019-03-10T16:05:33.188Z,41.14
2019-03-10T16:08:08.773Z,41.99
2019-03-10T16:10:40.504Z,42.22
2019-03-10T16:13:12.027Z,41.64
2019-03-10T16:15:43.523Z,42.19
2019-03-10T16:18:14.888Z,41.65
2019-03-10T16:20:46.609Z,41.08
2019-03-10T16:23:19.413Z,41.96
2019-03-10T16:25:51.588Z,41.91
2019-03-10T16:28:24.419Z,42.11
2019-03-10T16:30:56.011Z,41.17
2019-03-10T16:33:27.720Z,41.24
2019-03-10T16:35:59.246Z,41.39
2019-03-10T16:38:32.937Z,41.68
2019-03-10T16:41:04.486Z,42.32
2019-03-10T16:43:36.128Z,41.25
2019-03-10T16:46:07.821Z,42.09
2019-03-10T16:48:41.354Z,42.44
2019-03-10T16:51:12.967Z,42.83
2019-03-10T16:53:44.856Z,44.22
2019-03-10T16:56:16.689Z,43.26
2019-03-10T16:58:48.192Z,43.66
2019-03-10T17:01:20.906Z,43.34
2019-03-10T17:03:52.400Z,43.44
2019-03-10T17:06:23.957Z,42.95
2019-03-10T17:08:55.924Z,43.37
2019-03-10T17:11:27.770Z,44.08
2019-03-10T17:14:04.002Z,43.73
2019-03-10T17:16:35.540Z,44.26
2019-03-10T17:19:09.442Z,44.08
2019-03-10T17:21:42.055Z,44.54
2019-03-10T17:24:13.336Z,44.64
2019-03-10T17:26:48.055Z,44.84
2019-03-10T17:29:21.142Z,45.84
2019-03-10T17:31:54.601Z,47.30
2019-03-10T17:34:26.547Z,47.72
2019-03-10T17:37:06.221Z,49.08
2019-03-10T17:39:43.702Z,49.69
2019-03-10T17:42:16.009Z,51.78
2019-03-10T17:44:48.731Z,50.45
2019-03-10T17:47:19.973Z,46.77
2019-03-10T17:49:51.469Z,45.96
2019-03-10T17:52:22.928Z,45.84
2019-03-10T17:54:54.596Z,46.47
2019-03-10T17:57:25.984Z,47.66
2019-03-10T17:59:57.649Z,48.00
2019-03-10T18:02:28.978Z,48.54
2019-03-10T18:05:00.380Z,48.91
2019-03-10T18:07:31.925Z,49.98
2019-03-10T18:10:03.533Z,49.78
2019-03-10T18:12:35.085Z,49.29
2019-03-10T18:15:10.534Z,49.72
2019-03-10T18:17:42.281Z,49.71
2019-03-10T18:20:22.936Z,49.85
2019-03-10T18:22:55.280Z,49.85
2019-03-10T18:25:26.910Z,50.36
2019-03-10T18:27:58.357Z,49.52
2019-03-10T18:30:29.955Z,49.31
2019-03-10T18:33:02.144Z,49.07
2019-03-10T18:35:33.502Z,49.53
2019-03-10T18:38:06.363Z,49.41
2019-03-10T18:40:37.814Z,49.42
2019-03-10T18:43:09.119Z,48.48
2019-03-10T18:45:42.093Z,49.24
2019-03-10T18:48:13.660Z,48.85
2019-03-10T18:50:45.213Z,49.41
2019-03-10T18:53:16.766Z,48.90
2019-03-10T18:55:48.427Z,49.95
2019-03-10T18:58:20.230Z,48.69
2019-03-10T19:00:52.875Z,48.63
2019-03-10T19:03:24.175Z,48.24
2019-03-10T19:05:55.834Z,48.23
2019-03-10T19:08:29.330Z,48.89
2019-03-10T19:11:00.984Z,48.96
2019-03-10T19:13:32.481Z,49.82
2019-03-10T19:16:03.982Z,50.52
2019-03-10T19:18:35.386Z,50.95
2019-03-10T19:21:06.952Z,52.04
2019-03-10T19:23:38.432Z,52.27
2019-03-10T19:26:11.361Z,52.29
2019-03-10T19:28:43.120Z,52.38
2019-03-10T19:31:15.623Z,52.42
2019-03-10T19:33:47.406Z,52.56
2019-03-10T19:36:20.729Z,52.63
2019-03-10T19:38:52.356Z,52.55
2019-03-10T19:41:24.973Z,51.64
2019-03-10T19:43:56.809Z,52.36
2019-03-10T19:46:28.643Z,51.64
2019-03-10T19:49:06.963Z,50.91
2019-03-10T19:51:39.048Z,50.76
2019-03-10T19:54:14.825Z,50.44
2019-03-10T19:56:46.736Z,50.60
2019-03-10T19:59:19.596Z,50.24
2019-03-10T20:01:58.984Z,49.80
2019-03-10T20:04:30.791Z,50.92
2019-03-10T20:07:05.054Z,49.99
2019-03-10T20:09:37.381Z,50.97
2019-03-10T20:12:09.434Z,50.66
2019-03-10T20:14:41.311Z,49.46
2019-03-10T20:17:13.161Z,48.71
2019-03-10T20:19:45.705Z,49.53
2019-03-10T20:22:17.646Z,50.04
2019-03-10T20:24:49.149Z,49.21
2019-03-10T20:27:22.047Z,48.24
2019-03-10T20:29:53.725Z,49.71
2019-03-10T20:32:44.098Z,49.51
2019-03-10T20:35:17.357Z,49.14
2019-03-10T20:37:48.962Z,48.19
2019-03-10T20:40:27.581Z,47.92
2019-03-10T20:42:59.947Z,48.50
2019-03-10T20:45:31.377Z,48.49
2019-03-10T20:48:03.177Z,48.45
2019-03-10T20:50:35.091Z,49.27
2019-03-10T20:53:07.244Z,49.17
2019-03-10T20:55:38.610Z,49.13
2019-03-10T20:58:11.433Z,49.15
2019-03-10T21:00:43.922Z,49.11
2019-03-10T21:03:15.230Z,48.82
2019-03-10T21:05:52.864Z,48.88
2019-03-10T21:08:25.357Z,49.21
2019-03-10T21:10:56.736Z,49.27
2019-03-10T21:13:28.050Z,49.99
2019-03-10T21:15:59.494Z,49.94
2019-03-10T21:18:31.452Z,50.53
2019-03-10T21:21:03.196Z,49.97
2019-03-10T21:23:34.452Z,50.28
2019-03-10T21:26:05.853Z,50.04
2019-03-10T21:28:37.158Z,50.01
2019-03-10T21:31:08.528Z,50.40
2019-03-10T21:33:40.002Z,50.66
2019-03-10T21:36:11.645Z,51.58
2019-03-10T21:38:43.056Z,50.51
2019-03-10T21:41:15.221Z,51.39
2019-03-10T21:43:46.665Z,50.85
2019-03-10T21:46:18.966Z,51.69
2019-03-10T21:48:50.394Z,50.63
2019-03-10T21:51:21.615Z,50.35
2019-03-10T21:53:53.002Z,50.31
2019-03-10T21:56:24.365Z,50.26
2019-03-10T21:58:56.407Z,50.80
2019-03-10T22:01:27.784Z,50.35
2019-03-10T22:03:59.148Z,49.89
2019-03-10T22:06:31.419Z,50.38
2019-03-10T22:09:04.621Z,50.67
2019-03-10T22:11:37.767Z,51.13
2019-03-10T22:14:09.140Z,51.00
2019-03-10T22:16:40.417Z,52.18
2019-03-10T22:19:21.981Z,51.53
2019-03-10T22:21:44.726Z,52.04
2019-03-10T22:24:16.096Z,51.58
2019-03-10T22:26:47.381Z,50.98
2019-03-10T22:29:18.635Z,51.31
2019-03-10T22:31:50.043Z,49.78
2019-03-10T22:34:21.477Z,49.38
2019-03-10T22:36:52.698Z,49.83
2019-03-10T22:39:24.075Z,50.28
2019-03-10T22:41:55.432Z,49.82
2019-03-10T22:44:26.657Z,50.74
2019-03-10T22:46:57.888Z,51.24
2019-03-10T22:49:30.890Z,51.22
2019-03-10T22:52:02.118Z,50.38
2019-03-10T22:54:33.619Z,50.36
2019-03-10T22:57:04.872Z,50.23
2019-03-10T22:59:36.239Z,50.37
2019-03-10T23:02:07.588Z,50.84
2019-03-10T23:04:38.937Z,51.41
2019-03-10T23:07:10.241Z,50.59
2019-03-10T23:09:41.528Z,51.05
2019-03-10T23:12:12.732Z,50.32
2019-03-10T23:14:45.099Z,50.52
2019-03-10T23:17:16.454Z,50.30
2019-03-10T23:19:50.961Z,49.85
2019-03-10T23:22:22.255Z,50.00
2019-03-10T23:24:53.527Z,50.28
2019-03-10T23:27:24.894Z,50.55
2019-03-10T23:29:56.166Z,50.42
2019-03-10T23:32:27.459Z,50.05
2019-03-10T23:34:58.832Z,50.93
2019-03-10T23:37:30.100Z,51.48
2019-03-10T23:40:01.473Z,51.50
2019-03-10T23:42:56.508Z,52.50
2019-03-10T23:45:27.804Z,52.98
2019-03-10T23:47:59.079Z,53.02
2019-03-10T23:50:30.424Z,53.08
2019-03-10T23:53:01.707Z,53.60
2019-03-10T23:55:32.996Z,53.44
2019-03-10T23:58:04.535Z,53.79
